sensor_id;sensor_type;location;lat;lon;timestamp;temperature;humidity
10451;DHT22;5273;51.290;6.918;2023-05-27T00:13:50;11.10;90.00
10451;DHT22;5273;51.290;6.918;2023-05-27T00:31:02;10.90;91.30
10451;DHT22;5273;51.290;6.918;2023-05-27T00:40:52;10.80;91.80
10451;DHT22;5273;51.290;6.918;2023-05-27T00:48:15;10.80;92.10
10451;DHT22;5273;51.290;6.918;2023-05-27T00:58:04;10.70;92.60
10451;DHT22;5273;51.290;6.918;2023-05-27T01:05:28;10.60;93.30
10451;DHT22;5273;51.290;6.918;2023-05-27T01:08:06;10.60;93.50
10451;DHT22;5273;51.290;6.918;2023-05-27T01:10:41;10.60;93.70
10451;DHT22;5273;51.290;6.918;2023-05-27T01:13:16;10.60;93.80
10451;DHT22;5273;51.290;6.918;2023-05-27T01:18:12;10.50;94.20
10451;DHT22;5273;51.290;6.918;2023-05-27T01:20:45;10.50;94.40
10451;DHT22;5273;51.290;6.918;2023-05-27T01:23:15;10.40;94.50
10451;DHT22;5273;51.290;6.918;2023-05-27T01:33:08;10.20;95.50
10451;DHT22;5273;51.290;6.918;2023-05-27T01:35:41;10.20;95.80
10451;DHT22;5273;51.290;6.918;2023-05-27T01:38:13;10.20;96.00
10451;DHT22;5273;51.290;6.918;2023-05-27T01:40:43;10.20;96.20
10451;DHT22;5273;51.290;6.918;2023-05-27T01:43:12;10.10;96.60
10451;DHT22;5273;51.290;6.918;2023-05-27T01:45:39;10.00;96.90
10451;DHT22;5273;51.290;6.918;2023-05-27T01:48:06;10.10;97.30
10451;DHT22;5273;51.290;6.918;2023-05-27T01:50:34;10.00;97.50
10451;DHT22;5273;51.290;6.918;2023-05-27T01:53:02;9.90;98.20
10451;DHT22;5273;51.290;6.918;2023-05-27T01:55:29;9.90;98.50
10451;DHT22;5273;51.290;6.918;2023-05-27T01:57:58;9.80;98.50
10451;DHT22;5273;51.290;6.918;2023-05-27T02:05:19;11.60;99.90
10451;DHT22;5273;51.290;6.918;2023-05-27T02:15:09;9.60;99.60
10451;DHT22;5273;51.290;6.918;2023-05-27T02:32:20;9.50;99.90
10451;DHT22;5273;51.290;6.918;2023-05-27T02:49:32;9.30;99.90
10451;DHT22;5273;51.290;6.918;2023-05-27T03:06:43;9.10;99.90
10451;DHT22;5273;51.290;6.918;2023-05-27T03:21:26;9.10;99.90
10451;DHT22;5273;51.290;6.918;2023-05-27T03:23:54;9.10;99.90
10451;DHT22;5273;51.290;6.918;2023-05-27T03:26:21;9.10;99.90
10451;DHT22;5273;51.290;6.918;2023-05-27T03:28:48;9.00;99.90
10451;DHT22;5273;51.290;6.918;2023-05-27T03:31:15;8.90;99.90
10451;DHT22;5273;51.290;6.918;2023-05-27T03:33:42;8.90;99.90
10451;DHT22;5273;51.290;6.918;2023-05-27T03:36:09;8.90;99.90
10451;DHT22;5273;51.290;6.918;2023-05-27T03:38:36;8.90;99.90
10451;DHT22;5273;51.290;6.918;2023-05-27T03:41:04;8.80;99.90
10451;DHT22;5273;51.290;6.918;2023-05-27T03:43:31;8.80;99.90
10451;DHT22;5273;51.290;6.918;2023-05-27T03:45:57;8.80;99.90
10451;DHT22;5273;51.290;6.918;2023-05-27T03:58:14;8.80;99.90
10451;DHT22;5273;51.290;6.918;2023-05-27T04:08:03;9.20;99.90
10451;DHT22;5273;51.290;6.918;2023-05-27T04:10:30;9.20;99.90
10451;DHT22;5273;51.290;6.918;2023-05-27T04:15:25;8.90;99.90
10451;DHT22;5273;51.290;6.918;2023-05-27T04:25:14;8.90;99.90
10451;DHT22;5273;51.290;6.918;2023-05-27T04:27:41;9.00;99.90
10451;DHT22;5273;51.290;6.918;2023-05-27T04:30:09;9.00;99.90
10451;DHT22;5273;51.290;6.918;2023-05-27T04:32:37;9.00;99.90
10451;DHT22;5273;51.290;6.918;2023-05-27T04:35:05;9.00;99.90
10451;DHT22;5273;51.290;6.918;2023-05-27T04:37:33;9.10;99.90
10451;DHT22;5273;51.290;6.918;2023-05-27T04:40:02;9.10;99.90
10451;DHT22;5273;51.290;6.918;2023-05-27T04:42:29;10.20;99.90
10451;DHT22;5273;51.290;6.918;2023-05-27T04:44:58;9.20;99.90
10451;DHT22;5273;51.290;6.918;2023-05-27T04:47:25;9.30;99.90
10451;DHT22;5273;51.290;6.918;2023-05-27T04:49:53;9.40;99.90
10451;DHT22;5273;51.290;6.918;2023-05-27T04:52:20;9.40;99.90
10451;DHT22;5273;51.290;6.918;2023-05-27T04:54:49;9.60;99.90
10451;DHT22;5273;51.290;6.918;2023-05-27T04:57:16;9.60;99.90
10451;DHT22;5273;51.290;6.918;2023-05-27T04:59:44;9.70;99.90
10451;DHT22;5273;51.290;6.918;2023-05-27T05:02:25;9.80;99.90
10451;DHT22;5273;51.290;6.918;2023-05-27T05:05:00;9.90;99.90
10451;DHT22;5273;51.290;6.918;2023-05-27T05:07:27;10.10;99.90
10451;DHT22;5273;51.290;6.918;2023-05-27T05:09:54;10.30;99.90
10451;DHT22;5273;51.290;6.918;2023-05-27T05:12:21;10.40;99.90
10451;DHT22;5273;51.290;6.918;2023-05-27T05:14:48;10.50;99.90
10451;DHT22;5273;51.290;6.918;2023-05-27T05:17:15;10.70;99.90
10451;DHT22;5273;51.290;6.918;2023-05-27T05:22:10;11.00;99.90
10451;DHT22;5273;51.290;6.918;2023-05-27T05:34:27;11.30;99.70
10451;DHT22;5273;51.290;6.918;2023-05-27T05:36:54;11.40;99.90
10451;DHT22;5273;51.290;6.918;2023-05-27T05:39:22;11.60;99.20
10451;DHT22;5273;51.290;6.918;2023-05-27T05:41:49;11.70;99.60
10451;DHT22;5273;51.290;6.918;2023-05-27T05:44:17;11.80;99.20
10451;DHT22;5273;51.290;6.918;2023-05-27T05:46:43;12.00;98.60
10451;DHT22;5273;51.290;6.918;2023-05-27T05:49:10;12.20;98.80
10451;DHT22;5273;51.290;6.918;2023-05-27T05:51:37;12.30;98.10
10451;DHT22;5273;51.290;6.918;2023-05-27T05:54:04;12.60;97.20
10451;DHT22;5273;51.290;6.918;2023-05-27T05:56:32;12.80;96.30
10451;DHT22;5273;51.290;6.918;2023-05-27T05:58:59;13.20;96.50
10451;DHT22;5273;51.290;6.918;2023-05-27T06:01:26;13.70;95.10
10451;DHT22;5273;51.290;6.918;2023-05-27T06:03:53;14.00;94.20
10451;DHT22;5273;51.290;6.918;2023-05-27T06:06:20;14.40;93.90
10451;DHT22;5273;51.290;6.918;2023-05-27T06:08:47;14.70;93.00
10451;DHT22;5273;51.290;6.918;2023-05-27T06:11:14;15.10;92.50
10451;DHT22;5273;51.290;6.918;2023-05-27T06:13:42;15.50;91.90
10451;DHT22;5273;51.290;6.918;2023-05-27T06:16:09;15.80;90.50
10451;DHT22;5273;51.290;6.918;2023-05-27T06:18:36;15.90;90.30
10451;DHT22;5273;51.290;6.918;2023-05-27T06:21:03;16.00;89.80
10451;DHT22;5273;51.290;6.918;2023-05-27T06:23:29;16.00;89.50
10451;DHT22;5273;51.290;6.918;2023-05-27T06:25:56;16.20;89.50
10451;DHT22;5273;51.290;6.918;2023-05-27T06:28:23;16.70;89.90
10451;DHT22;5273;51.290;6.918;2023-05-27T06:30:52;17.10;84.80
10451;DHT22;5273;51.290;6.918;2023-05-27T06:33:19;17.50;84.90
10451;DHT22;5273;51.290;6.918;2023-05-27T06:35:45;18.00;82.00
10451;DHT22;5273;51.290;6.918;2023-05-27T06:38:12;18.80;79.60
10451;DHT22;5273;51.290;6.918;2023-05-27T06:40:39;19.30;77.20
10451;DHT22;5273;51.290;6.918;2023-05-27T06:43:06;19.80;74.60
10451;DHT22;5273;51.290;6.918;2023-05-27T06:45:33;20.40;72.90
10451;DHT22;5273;51.290;6.918;2023-05-27T06:48:01;21.00;70.20
10451;DHT22;5273;51.290;6.918;2023-05-27T06:50:28;21.60;68.70
10451;DHT22;5273;51.290;6.918;2023-05-27T06:52:55;22.20;66.90
10451;DHT22;5273;51.290;6.918;2023-05-27T06:55:21;22.60;62.50
10451;DHT22;5273;51.290;6.918;2023-05-27T06:57:48;23.00;60.00
10451;DHT22;5273;51.290;6.918;2023-05-27T07:00:15;23.30;57.90
10451;DHT22;5273;51.290;6.918;2023-05-27T07:02:42;23.20;57.40
10451;DHT22;5273;51.290;6.918;2023-05-27T07:05:10;23.70;56.90
10451;DHT22;5273;51.290;6.918;2023-05-27T07:07:37;23.90;55.10
10451;DHT22;5273;51.290;6.918;2023-05-27T07:10:05;23.90;55.80
10451;DHT22;5273;51.290;6.918;2023-05-27T07:12:32;24.80;56.10
10451;DHT22;5273;51.290;6.918;2023-05-27T07:14:59;25.50;54.30
10451;DHT22;5273;51.290;6.918;2023-05-27T07:17:25;26.70;52.20
10451;DHT22;5273;51.290;6.918;2023-05-27T07:19:52;26.60;49.00
10451;DHT22;5273;51.290;6.918;2023-05-27T07:22:20;27.20;48.80
10451;DHT22;5273;51.290;6.918;2023-05-27T07:24:47;28.00;48.10
10451;DHT22;5273;51.290;6.918;2023-05-27T07:27:14;28.70;45.60
10451;DHT22;5273;51.290;6.918;2023-05-27T07:29:40;29.30;43.30
10451;DHT22;5273;51.290;6.918;2023-05-27T07:32:07;29.30;42.50
10451;DHT22;5273;51.290;6.918;2023-05-27T07:34:34;29.20;42.10
10451;DHT22;5273;51.290;6.918;2023-05-27T07:37:01;29.40;42.30
10451;DHT22;5273;51.290;6.918;2023-05-27T07:39:29;29.60;40.30
10451;DHT22;5273;51.290;6.918;2023-05-27T07:41:56;29.10;41.30
10451;DHT22;5273;51.290;6.918;2023-05-27T07:44:22;29.00;42.10
10451;DHT22;5273;51.290;6.918;2023-05-27T07:46:49;29.30;40.70
10451;DHT22;5273;51.290;6.918;2023-05-27T07:49:16;29.40;39.60
10451;DHT22;5273;51.290;6.918;2023-05-27T07:51:43;29.80;40.10
10451;DHT22;5273;51.290;6.918;2023-05-27T07:54:09;30.40;39.00
10451;DHT22;5273;51.290;6.918;2023-05-27T07:56:37;31.00;38.30
10451;DHT22;5273;51.290;6.918;2023-05-27T07:59:04;31.70;37.60
10451;DHT22;5273;51.290;6.918;2023-05-27T08:01:31;31.90;36.20
10451;DHT22;5273;51.290;6.918;2023-05-27T08:03:58;31.80;35.70
10451;DHT22;5273;51.290;6.918;2023-05-27T08:06:25;32.20;35.80
10451;DHT22;5273;51.290;6.918;2023-05-27T08:08:52;32.10;34.80
10451;DHT22;5273;51.290;6.918;2023-05-27T08:11:18;32.70;35.30
10451;DHT22;5273;51.290;6.918;2023-05-27T08:13:47;33.00;34.60
10451;DHT22;5273;51.290;6.918;2023-05-27T08:16:14;33.10;33.50
10451;DHT22;5273;51.290;6.918;2023-05-27T08:18:41;33.40;34.60
10451;DHT22;5273;51.290;6.918;2023-05-27T08:21:08;33.80;32.70
10451;DHT22;5273;51.290;6.918;2023-05-27T08:23:34;33.70;32.10
10451;DHT22;5273;51.290;6.918;2023-05-27T08:26:01;34.00;33.40
10451;DHT22;5273;51.290;6.918;2023-05-27T08:28:28;33.90;31.40
10451;DHT22;5273;51.290;6.918;2023-05-27T08:30:56;33.80;31.50
10451;DHT22;5273;51.290;6.918;2023-05-27T08:33:23;34.10;32.20
10451;DHT22;5273;51.290;6.918;2023-05-27T08:35:50;34.40;32.40
10451;DHT22;5273;51.290;6.918;2023-05-27T08:38:17;34.60;31.30
10451;DHT22;5273;51.290;6.918;2023-05-27T08:40:44;34.60;30.80
10451;DHT22;5273;51.290;6.918;2023-05-27T08:43:11;34.80;30.80
10451;DHT22;5273;51.290;6.918;2023-05-27T08:45:38;35.30;31.00
10451;DHT22;5273;51.290;6.918;2023-05-27T08:48:08;35.40;29.00
10451;DHT22;5273;51.290;6.918;2023-05-27T08:50:36;35.70;29.30
10451;DHT22;5273;51.290;6.918;2023-05-27T08:53:03;36.00;28.60
10451;DHT22;5273;51.290;6.918;2023-05-27T08:55:30;36.10;30.20
10451;DHT22;5273;51.290;6.918;2023-05-27T08:57:58;36.50;28.60
10451;DHT22;5273;51.290;6.918;2023-05-27T09:00:26;36.80;29.80
10451;DHT22;5273;51.290;6.918;2023-05-27T09:02:53;37.10;29.50
10451;DHT22;5273;51.290;6.918;2023-05-27T09:05:23;37.30;28.40
10451;DHT22;5273;51.290;6.918;2023-05-27T09:07:50;37.40;28.50
10451;DHT22;5273;51.290;6.918;2023-05-27T09:10:17;37.70;29.50
10451;DHT22;5273;51.290;6.918;2023-05-27T09:12:45;37.80;28.60
10451;DHT22;5273;51.290;6.918;2023-05-27T09:15:13;38.00;29.40
10451;DHT22;5273;51.290;6.918;2023-05-27T09:17:41;38.20;27.60
10451;DHT22;5273;51.290;6.918;2023-05-27T09:20:08;38.10;28.50
10451;DHT22;5273;51.290;6.918;2023-05-27T09:22:38;36.30;27.40
10451;DHT22;5273;51.290;6.918;2023-05-27T09:25:06;37.90;27.00
10451;DHT22;5273;51.290;6.918;2023-05-27T09:27:33;37.90;27.40
10451;DHT22;5273;51.290;6.918;2023-05-27T09:30:06;38.10;27.90
10451;DHT22;5273;51.290;6.918;2023-05-27T09:32:33;38.30;27.70
10451;DHT22;5273;51.290;6.918;2023-05-27T09:35:01;38.10;27.40
10451;DHT22;5273;51.290;6.918;2023-05-27T09:37:31;37.90;25.60
10451;DHT22;5273;51.290;6.918;2023-05-27T09:40:00;37.00;24.60
10451;DHT22;5273;51.290;6.918;2023-05-27T09:42:38;36.40;25.90
10451;DHT22;5273;51.290;6.918;2023-05-27T09:45:06;35.60;25.40
10451;DHT22;5273;51.290;6.918;2023-05-27T09:47:36;35.40;27.80
10451;DHT22;5273;51.290;6.918;2023-05-27T09:50:05;35.40;27.90
10451;DHT22;5273;51.290;6.918;2023-05-27T09:52:34;35.50;27.50
10451;DHT22;5273;51.290;6.918;2023-05-27T09:55:05;35.90;27.70
10451;DHT22;5273;51.290;6.918;2023-05-27T09:57:33;36.10;26.20
10451;DHT22;5273;51.290;6.918;2023-05-27T10:00:02;36.50;27.10
10451;DHT22;5273;51.290;6.918;2023-05-27T10:02:35;37.10;26.90
10451;DHT22;5273;51.290;6.918;2023-05-27T10:05:04;37.70;26.30
10451;DHT22;5273;51.290;6.918;2023-05-27T10:07:36;37.70;27.50
10451;DHT22;5273;51.290;6.918;2023-05-27T10:10:05;37.60;24.70
10451;DHT22;5273;51.290;6.918;2023-05-27T10:12:32;36.50;25.30
10451;DHT22;5273;51.290;6.918;2023-05-27T10:14:59;35.90;27.50
10451;DHT22;5273;51.290;6.918;2023-05-27T10:17:26;36.30;26.90
10451;DHT22;5273;51.290;6.918;2023-05-27T10:19:56;37.00;26.50
10451;DHT22;5273;51.290;6.918;2023-05-27T10:22:23;37.40;25.30
10451;DHT22;5273;51.290;6.918;2023-05-27T10:24:50;37.30;25.70
10451;DHT22;5273;51.290;6.918;2023-05-27T10:27:20;37.40;25.90
10451;DHT22;5273;51.290;6.918;2023-05-27T10:29:57;37.50;25.80
10451;DHT22;5273;51.290;6.918;2023-05-27T10:32:24;37.90;24.80
10451;DHT22;5273;51.290;6.918;2023-05-27T10:34:52;37.50;24.20
10451;DHT22;5273;51.290;6.918;2023-05-27T10:37:21;37.30;25.70
10451;DHT22;5273;51.290;6.918;2023-05-27T10:39:55;37.20;24.40
10451;DHT22;5273;51.290;6.918;2023-05-27T10:42:24;36.40;25.70
10451;DHT22;5273;51.290;6.918;2023-05-27T10:45:03;37.10;26.10
10451;DHT22;5273;51.290;6.918;2023-05-27T10:47:33;36.60;25.60
10451;DHT22;5273;51.290;6.918;2023-05-27T10:50:10;35.90;26.70
10451;DHT22;5273;51.290;6.918;2023-05-27T10:52:38;35.20;27.30
10451;DHT22;5273;51.290;6.918;2023-05-27T10:55:05;34.70;27.80
10451;DHT22;5273;51.290;6.918;2023-05-27T10:57:34;34.10;29.40
10451;DHT22;5273;51.290;6.918;2023-05-27T11:00:03;33.30;29.50
10451;DHT22;5273;51.290;6.918;2023-05-27T11:02:36;32.80;31.00
10451;DHT22;5273;51.290;6.918;2023-05-27T11:05:09;32.20;30.00
10451;DHT22;5273;51.290;6.918;2023-05-27T11:07:37;31.60;30.90
10451;DHT22;5273;51.290;6.918;2023-05-27T11:10:06;31.10;31.70
10451;DHT22;5273;51.290;6.918;2023-05-27T11:12:34;30.80;32.40
10451;DHT22;5273;51.290;6.918;2023-05-27T11:15:02;30.60;34.10
10451;DHT22;5273;51.290;6.918;2023-05-27T11:17:29;30.50;34.00
10451;DHT22;5273;51.290;6.918;2023-05-27T11:19:56;29.80;35.10
10451;DHT22;5273;51.290;6.918;2023-05-27T11:22:24;29.90;34.80
10451;DHT22;5273;51.290;6.918;2023-05-27T11:24:58;29.40;36.80
10451;DHT22;5273;51.290;6.918;2023-05-27T11:27:34;28.40;35.00
10451;DHT22;5273;51.290;6.918;2023-05-27T11:30:07;27.60;36.10
10451;DHT22;5273;51.290;6.918;2023-05-27T11:32:35;27.50;38.20
10451;DHT22;5273;51.290;6.918;2023-05-27T11:35:02;27.30;37.80
10451;DHT22;5273;51.290;6.918;2023-05-27T11:37:31;27.50;36.80
10451;DHT22;5273;51.290;6.918;2023-05-27T11:39:58;27.50;40.00
10451;DHT22;5273;51.290;6.918;2023-05-27T11:42:25;27.40;36.50
10451;DHT22;5273;51.290;6.918;2023-05-27T11:44:53;27.20;37.20
10451;DHT22;5273;51.290;6.918;2023-05-27T11:47:20;27.00;36.40
10451;DHT22;5273;51.290;6.918;2023-05-27T11:49:49;26.80;37.80
10451;DHT22;5273;51.290;6.918;2023-05-27T11:52:16;26.60;39.20
10451;DHT22;5273;51.290;6.918;2023-05-27T11:54:42;26.70;39.10
10451;DHT22;5273;51.290;6.918;2023-05-27T11:57:10;26.80;38.80
10451;DHT22;5273;51.290;6.918;2023-05-27T11:59:37;26.70;38.60
10451;DHT22;5273;51.290;6.918;2023-05-27T12:02:06;26.60;38.50
10451;DHT22;5273;51.290;6.918;2023-05-27T12:04:33;26.60;38.20
10451;DHT22;5273;51.290;6.918;2023-05-27T12:07:01;26.40;38.70
10451;DHT22;5273;51.290;6.918;2023-05-27T12:09:28;26.20;38.70
10451;DHT22;5273;51.290;6.918;2023-05-27T12:11:55;26.20;38.30
10451;DHT22;5273;51.290;6.918;2023-05-27T12:14:21;26.20;38.90
10451;DHT22;5273;51.290;6.918;2023-05-27T12:16:48;26.00;39.30
10451;DHT22;5273;51.290;6.918;2023-05-27T12:19:17;26.30;40.00
10451;DHT22;5273;51.290;6.918;2023-05-27T12:21:43;26.20;39.30
10451;DHT22;5273;51.290;6.918;2023-05-27T12:24:10;25.90;39.60
10451;DHT22;5273;51.290;6.918;2023-05-27T12:26:37;25.80;40.00
10451;DHT22;5273;51.290;6.918;2023-05-27T12:29:06;25.70;41.60
10451;DHT22;5273;51.290;6.918;2023-05-27T12:31:33;25.70;40.50
10451;DHT22;5273;51.290;6.918;2023-05-27T12:34:00;25.70;40.00
10451;DHT22;5273;51.290;6.918;2023-05-27T12:36:28;25.60;41.20
10451;DHT22;5273;51.290;6.918;2023-05-27T12:38:55;25.80;40.20
10451;DHT22;5273;51.290;6.918;2023-05-27T12:41:22;25.70;41.10
10451;DHT22;5273;51.290;6.918;2023-05-27T12:43:48;25.60;41.20
10451;DHT22;5273;51.290;6.918;2023-05-27T12:46:15;25.60;40.90
10451;DHT22;5273;51.290;6.918;2023-05-27T12:48:42;25.60;41.30
10451;DHT22;5273;51.290;6.918;2023-05-27T12:51:09;25.50;41.90
10451;DHT22;5273;51.290;6.918;2023-05-27T12:53:38;25.50;40.70
10451;DHT22;5273;51.290;6.918;2023-05-27T12:56:05;25.40;41.10
10451;DHT22;5273;51.290;6.918;2023-05-27T12:58:32;25.30;41.10
10451;DHT22;5273;51.290;6.918;2023-05-27T13:00:59;25.10;41.30
10451;DHT22;5273;51.290;6.918;2023-05-27T13:03:26;25.20;42.40
10451;DHT22;5273;51.290;6.918;2023-05-27T13:05:53;25.20;40.90
10451;DHT22;5273;51.290;6.918;2023-05-27T13:08:20;25.30;43.60
10451;DHT22;5273;51.290;6.918;2023-05-27T13:10:48;25.40;41.60
10451;DHT22;5273;51.290;6.918;2023-05-27T13:13:15;25.30;40.70
10451;DHT22;5273;51.290;6.918;2023-05-27T13:15:42;25.20;42.90
10451;DHT22;5273;51.290;6.918;2023-05-27T13:18:09;25.00;42.90
10451;DHT22;5273;51.290;6.918;2023-05-27T13:20:36;25.00;43.20
10451;DHT22;5273;51.290;6.918;2023-05-27T13:23:03;24.80;42.70
10451;DHT22;5273;51.290;6.918;2023-05-27T13:25:30;24.60;44.40
10451;DHT22;5273;51.290;6.918;2023-05-27T13:27:58;24.50;44.90
10451;DHT22;5273;51.290;6.918;2023-05-27T13:30:26;24.50;45.20
10451;DHT22;5273;51.290;6.918;2023-05-27T13:32:53;24.50;45.60
10451;DHT22;5273;51.290;6.918;2023-05-27T13:35:20;24.60;46.20
10451;DHT22;5273;51.290;6.918;2023-05-27T13:37:47;24.60;46.10
10451;DHT22;5273;51.290;6.918;2023-05-27T13:40:14;24.70;46.00
10451;DHT22;5273;51.290;6.918;2023-05-27T13:42:41;24.80;45.00
10451;DHT22;5273;51.290;6.918;2023-05-27T13:45:09;24.80;44.80
10451;DHT22;5273;51.290;6.918;2023-05-27T13:47:36;24.70;43.00
10451;DHT22;5273;51.290;6.918;2023-05-27T13:50:05;24.60;45.40
10451;DHT22;5273;51.290;6.918;2023-05-27T13:52:32;24.50;45.90
10451;DHT22;5273;51.290;6.918;2023-05-27T13:54:59;24.50;46.10
10451;DHT22;5273;51.290;6.918;2023-05-27T13:57:26;24.50;46.50
10451;DHT22;5273;51.290;6.918;2023-05-27T13:59:53;24.50;46.50
10451;DHT22;5273;51.290;6.918;2023-05-27T14:02:21;24.60;46.30
10451;DHT22;5273;51.290;6.918;2023-05-27T14:04:48;24.70;45.10
10451;DHT22;5273;51.290;6.918;2023-05-27T14:07:14;24.80;45.00
10451;DHT22;5273;51.290;6.918;2023-05-27T14:09:42;24.80;45.10
10451;DHT22;5273;51.290;6.918;2023-05-27T14:12:09;24.80;45.20
10451;DHT22;5273;51.290;6.918;2023-05-27T14:14:36;24.70;45.30
10451;DHT22;5273;51.290;6.918;2023-05-27T14:17:03;24.80;46.30
10451;DHT22;5273;51.290;6.918;2023-05-27T14:19:31;24.80;45.10
10451;DHT22;5273;51.290;6.918;2023-05-27T14:21:58;24.70;44.80
10451;DHT22;5273;51.290;6.918;2023-05-27T14:24:24;24.70;45.70
10451;DHT22;5273;51.290;6.918;2023-05-27T14:26:51;24.70;45.60
10451;DHT22;5273;51.290;6.918;2023-05-27T14:29:18;24.60;45.00
10451;DHT22;5273;51.290;6.918;2023-05-27T14:31:45;24.70;46.90
10451;DHT22;5273;51.290;6.918;2023-05-27T14:34:12;24.80;44.60
10451;DHT22;5273;51.290;6.918;2023-05-27T14:36:40;25.00;46.90
10451;DHT22;5273;51.290;6.918;2023-05-27T14:39:07;25.10;44.30
10451;DHT22;5273;51.290;6.918;2023-05-27T14:41:34;24.40;44.00
10451;DHT22;5273;51.290;6.918;2023-05-27T14:44:00;24.90;45.30
10451;DHT22;5273;51.290;6.918;2023-05-27T14:46:28;24.80;44.00
10451;DHT22;5273;51.290;6.918;2023-05-27T14:48:55;24.70;44.30
10451;DHT22;5273;51.290;6.918;2023-05-27T14:51:22;24.70;44.60
10451;DHT22;5273;51.290;6.918;2023-05-27T14:53:50;24.70;46.00
10451;DHT22;5273;51.290;6.918;2023-05-27T14:56:17;24.80;47.40
10451;DHT22;5273;51.290;6.918;2023-05-27T14:58:43;24.90;46.90
10451;DHT22;5273;51.290;6.918;2023-05-27T15:01:12;24.80;43.50
10451;DHT22;5273;51.290;6.918;2023-05-27T15:03:39;24.60;44.40
10451;DHT22;5273;51.290;6.918;2023-05-27T15:06:08;24.50;43.90
10451;DHT22;5273;51.290;6.918;2023-05-27T15:08:36;24.50;44.30
10451;DHT22;5273;51.290;6.918;2023-05-27T15:11:04;24.50;43.90
10451;DHT22;5273;51.290;6.918;2023-05-27T15:13:31;24.40;43.90
10451;DHT22;5273;51.290;6.918;2023-05-27T15:15:58;24.40;45.60
10451;DHT22;5273;51.290;6.918;2023-05-27T15:18:24;24.50;44.10
10451;DHT22;5273;51.290;6.918;2023-05-27T15:20:51;25.60;44.30
10451;DHT22;5273;51.290;6.918;2023-05-27T15:23:18;24.40;44.00
10451;DHT22;5273;51.290;6.918;2023-05-27T15:25:45;24.30;44.30
10451;DHT22;5273;51.290;6.918;2023-05-27T15:28:13;24.30;44.20
10451;DHT22;5273;51.290;6.918;2023-05-27T15:30:40;24.30;45.40
10451;DHT22;5273;51.290;6.918;2023-05-27T15:35:34;25.00;50.20
10451;DHT22;5273;51.290;6.918;2023-05-27T15:38:00;24.40;44.70
10451;DHT22;5273;51.290;6.918;2023-05-27T15:40:27;24.30;43.90
10451;DHT22;5273;51.290;6.918;2023-05-27T15:42:54;24.20;43.50
10451;DHT22;5273;51.290;6.918;2023-05-27T15:45:22;24.10;44.60
10451;DHT22;5273;51.290;6.918;2023-05-27T15:47:49;24.10;44.90
10451;DHT22;5273;51.290;6.918;2023-05-27T15:52:46;24.10;44.90
10451;DHT22;5273;51.290;6.918;2023-05-27T15:55:13;24.20;44.70
10451;DHT22;5273;51.290;6.918;2023-05-27T15:57:40;24.20;44.70
10451;DHT22;5273;51.290;6.918;2023-05-27T16:00:08;24.20;43.70
10451;DHT22;5273;51.290;6.918;2023-05-27T16:02:37;23.90;44.30
10451;DHT22;5273;51.290;6.918;2023-05-27T16:05:04;23.90;45.60
10451;DHT22;5273;51.290;6.918;2023-05-27T16:07:32;23.90;45.90
10451;DHT22;5273;51.290;6.918;2023-05-27T16:09:58;23.90;45.50
10451;DHT22;5273;51.290;6.918;2023-05-27T16:12:25;23.70;45.30
10451;DHT22;5273;51.290;6.918;2023-05-27T16:14:52;23.70;45.70
10451;DHT22;5273;51.290;6.918;2023-05-27T16:17:19;23.70;44.50
10451;DHT22;5273;51.290;6.918;2023-05-27T16:19:47;23.70;44.90
10451;DHT22;5273;51.290;6.918;2023-05-27T16:22:14;23.70;44.80
10451;DHT22;5273;51.290;6.918;2023-05-27T16:24:40;23.60;45.40
10451;DHT22;5273;51.290;6.918;2023-05-27T16:27:07;23.70;45.40
10451;DHT22;5273;51.290;6.918;2023-05-27T16:29:34;23.60;44.80
10451;DHT22;5273;51.290;6.918;2023-05-27T16:32:01;23.70;44.60
10451;DHT22;5273;51.290;6.918;2023-05-27T16:34:28;23.60;45.70
10451;DHT22;5273;51.290;6.918;2023-05-27T16:36:56;23.60;45.10
10451;DHT22;5273;51.290;6.918;2023-05-27T16:41:50;23.30;50.00
10451;DHT22;5273;51.290;6.918;2023-05-27T16:44:17;23.60;44.60
10451;DHT22;5273;51.290;6.918;2023-05-27T16:46:44;23.80;50.40
10451;DHT22;5273;51.290;6.918;2023-05-27T16:49:11;23.50;45.00
10451;DHT22;5273;51.290;6.918;2023-05-27T16:54:06;23.50;49.70
10451;DHT22;5273;51.290;6.918;2023-05-27T16:56:33;23.20;44.40
10451;DHT22;5273;51.290;6.918;2023-05-27T16:59:01;23.10;45.00
10451;DHT22;5273;51.290;6.918;2023-05-27T17:01:28;23.10;45.60
10451;DHT22;5273;51.290;6.918;2023-05-27T17:03:54;23.10;45.60
10451;DHT22;5273;51.290;6.918;2023-05-27T17:06:22;23.20;45.60
10451;DHT22;5273;51.290;6.918;2023-05-27T17:08:49;23.10;44.90
10451;DHT22;5273;51.290;6.918;2023-05-27T17:11:17;23.10;44.60
10451;DHT22;5273;51.290;6.918;2023-05-27T17:13:44;23.00;44.60
10451;DHT22;5273;51.290;6.918;2023-05-27T17:16:10;23.00;45.30
10451;DHT22;5273;51.290;6.918;2023-05-27T17:18:37;23.00;45.60
10451;DHT22;5273;51.290;6.918;2023-05-27T17:21:04;22.80;45.40
10451;DHT22;5273;51.290;6.918;2023-05-27T17:23:31;22.70;45.20
10451;DHT22;5273;51.290;6.918;2023-05-27T17:28:26;22.60;44.40
10451;DHT22;5273;51.290;6.918;2023-05-27T17:30:53;22.50;44.70
10451;DHT22;5273;51.290;6.918;2023-05-27T17:33:20;22.50;44.80
10451;DHT22;5273;51.290;6.918;2023-05-27T17:35:47;21.70;44.60
10451;DHT22;5273;51.290;6.918;2023-05-27T17:38:14;22.40;45.20
10451;DHT22;5273;51.290;6.918;2023-05-27T17:40:41;22.30;45.10
10451;DHT22;5273;51.290;6.918;2023-05-27T17:43:08;22.30;45.30
10451;DHT22;5273;51.290;6.918;2023-05-27T17:45:36;22.30;45.30
10451;DHT22;5273;51.290;6.918;2023-05-27T17:48:03;22.20;44.80
10451;DHT22;5273;51.290;6.918;2023-05-27T17:50:34;22.20;45.10
10451;DHT22;5273;51.290;6.918;2023-05-27T17:53:01;22.10;45.60
10451;DHT22;5273;51.290;6.918;2023-05-27T17:55:28;22.10;45.40
10451;DHT22;5273;51.290;6.918;2023-05-27T17:57:54;22.10;45.50
10451;DHT22;5273;51.290;6.918;2023-05-27T18:00:21;22.10;45.70
10451;DHT22;5273;51.290;6.918;2023-05-27T18:02:49;22.00;45.70
10451;DHT22;5273;51.290;6.918;2023-05-27T18:05:16;22.00;45.40
10451;DHT22;5273;51.290;6.918;2023-05-27T18:07:43;21.90;45.70
10451;DHT22;5273;51.290;6.918;2023-05-27T18:10:10;21.90;46.10
10451;DHT22;5273;51.290;6.918;2023-05-27T18:12:39;21.80;45.90
10451;DHT22;5273;51.290;6.918;2023-05-27T18:15:07;21.80;46.10
10451;DHT22;5273;51.290;6.918;2023-05-27T18:17:34;21.70;46.20
10451;DHT22;5273;51.290;6.918;2023-05-27T18:20:02;21.60;46.10
10451;DHT22;5273;51.290;6.918;2023-05-27T18:22:29;21.60;46.50
10451;DHT22;5273;51.290;6.918;2023-05-27T18:24:56;21.60;46.70
10451;DHT22;5273;51.290;6.918;2023-05-27T18:27:23;21.60;46.60
10451;DHT22;5273;51.290;6.918;2023-05-27T18:29:49;21.60;46.60
10451;DHT22;5273;51.290;6.918;2023-05-27T18:32:18;21.40;46.10
10451;DHT22;5273;51.290;6.918;2023-05-27T18:34:45;21.40;46.10
10451;DHT22;5273;51.290;6.918;2023-05-27T18:37:14;21.30;46.40
10451;DHT22;5273;51.290;6.918;2023-05-27T18:39:40;21.30;46.80
10451;DHT22;5273;51.290;6.918;2023-05-27T18:42:07;21.20;46.90
10451;DHT22;5273;51.290;6.918;2023-05-27T18:44:34;21.20;47.00
10451;DHT22;5273;51.290;6.918;2023-05-27T18:47:01;21.10;47.20
10451;DHT22;5273;51.290;6.918;2023-05-27T18:49:27;20.60;46.90
10451;DHT22;5273;51.290;6.918;2023-05-27T18:51:55;21.00;47.30